Time;durP1;ratioP1;P1;durP2;ratioP2;P2;SDS_P1;SDS_P2;PMS_P1;PMS_P2;Temp;Humidity;BMP_temperature;BMP_pressure;BME280_temperature;BME280_humidity;BME280_pressure;Samples;Min_cycle;Max_cycle;Signal;HPM_P1;HPM_P2
2023/12/16 00:00:02;;;;;;;4.6;3.4;;;;;;;3.11;97.4707;958.1008;;;;
2023/12/16 00:02:44;;;;;;;4.8;3.6;;;;;;;3.1;97.47949;958.1933;;;;
2023/12/16 00:05:17;;;;;;;4.3;3.2;;;;;;;3.11;97.41504;958.2087;;;;
2023/12/16 00:07:43;;;;;;;3.5;3;;;;;;;3.07;97.45996;958.1383;;;;
2023/12/16 00:10:18;;;;;;;4.9;2.8;;;;;;;3.02;97.76465;958.1284;;;;
2023/12/16 00:12:47;;;;;;;3.3;2.6;;;;;;;3.05;97.5459;958.1983;;;;
2023/12/16 00:15:23;;;;;;;4;2.7;;;;;;;3.19;96.66992;958.1221;;;;
2023/12/16 00:17:52;;;;;;;3.3;2.8;;;;;;;3.03;96.85938;958.0996;;;;
2023/12/16 00:20:22;;;;;;;4.8;3.4;;;;;;;3.03;97.11523;958.0694;;;;
2023/12/16 00:22:53;;;;;;;5.2;3.6;;;;;;;2.91;97.76172;957.9142;;;;
2023/12/16 00:25:19;;;;;;;17.2;9.3;;;;;;;2.97;97.70703;957.9363;;;;
2023/12/16 00:27:44;;;;;;;11.7;6.6;;;;;;;3.02;97.5625;957.8378;;;;
2023/12/16 00:30:18;;;;;;;5;3.4;;;;;;;3.06;97.45801;957.8555;;;;
2023/12/16 00:32:53;;;;;;;4.2;3.2;;;;;;;3.17;96.89063;957.9856;;;;
2023/12/16 00:35:20;;;;;;;5.4;3;;;;;;;3.15;97.1084;958.0101;;;;
2023/12/16 00:37:50;;;;;;;3.3;3;;;;;;;3.11;97.06641;958.0602;;;;
2023/12/16 00:40:18;;;;;;;4.1;3.2;;;;;;;3.05;97.21191;958.0758;;;;
2023/12/16 00:42:58;;;;;;;3.2;2.7;;;;;;;2.99;97.51074;958.171;;;;
2023/12/16 00:45:34;;;;;;;2.3;2.1;;;;;;;3.11;97.17676;958.2399;;;;
2023/12/16 00:48:00;;;;;;;2.7;2.4;;;;;;;3.16;96.49512;958.2715;;;;
2023/12/16 00:50:26;;;;;;;2.7;2.1;;;;;;;3.07;97;958.2994;;;;
2023/12/16 00:52:56;;;;;;;2.3;1.8;;;;;;;3;97.51074;958.3408;;;;
2023/12/16 00:55:21;;;;;;;2.4;1.9;;;;;;;3.01;97.45703;958.2921;;;;
2023/12/16 00:57:47;;;;;;;3.3;2.2;;;;;;;2.95;97.76953;958.2491;;;;
2023/12/16 01:00:16;;;;;;;3.8;2.8;;;;;;;3.05;97.41113;958.3688;;;;
2023/12/16 01:02:42;;;;;;;3.7;3.1;;;;;;;3.07;97.38184;958.4257;;;;
2023/12/16 01:05:09;;;;;;;3.6;2.9;;;;;;;3.07;97.35938;958.4572;;;;
2023/12/16 01:07:37;;;;;;;2.9;2.6;;;;;;;3.07;97.41504;958.3992;;;;
2023/12/16 01:10:02;;;;;;;2.4;2.1;;;;;;;2.99;97.26465;958.4103;;;;
2023/12/16 01:12:32;;;;;;;2.4;1.9;;;;;;;2.9;97.44336;958.3692;;;;
2023/12/16 01:14:57;;;;;;;3.3;2.4;;;;;;;2.96;97.32324;958.4959;;;;
2023/12/16 01:17:25;;;;;;;2.5;2.1;;;;;;;2.93;97.1582;958.5126;;;;
2023/12/16 01:19:50;;;;;;;4.4;2.3;;;;;;;2.96;97.1123;958.6819;;;;
2023/12/16 01:22:18;;;;;;;4.4;2.1;;;;;;;2.98;97.38574;958.762;;;;
2023/12/16 01:24:43;;;;;;;3.3;2.3;;;;;;;2.93;97.58594;958.6997;;;;
2023/12/16 01:27:10;;;;;;;3.2;2.3;;;;;;;3.01;97.25488;958.7358;;;;
2023/12/16 01:29:36;;;;;;;5.5;3.3;;;;;;;3.01;97.70605;958.6755;;;;
2023/12/16 01:32:03;;;;;;;4;3;;;;;;;3.04;97.74609;958.7453;;;;
2023/12/16 01:34:35;;;;;;;4.7;3.1;;;;;;;3.08;97.61035;958.6358;;;;
2023/12/16 01:37:08;;;;;;;4.7;3.1;;;;;;;3.16;96.88867;958.621;;;;
2023/12/16 01:39:38;;;;;;;4.5;3;;;;;;;3.17;96.89063;958.7026;;;;
2023/12/16 01:42:01;;;;;;;4.5;2.8;;;;;;;3.31;96.22559;958.5834;;;;
2023/12/16 01:44:26;;;;;;;8.6;4.9;;;;;;;3.35;95.54883;958.6293;;;;
2023/12/16 01:47:18;;;;;;;5.9;3.9;;;;;;;3.2;96.3916;958.54;;;;
2023/12/16 01:49:47;;;;;;;5.3;3.9;;;;;;;3.12;96.66504;958.6262;;;;
2023/12/16 01:52:11;;;;;;;5.3;3.4;;;;;;;3.16;96.17969;958.5929;;;;
2023/12/16 01:54:38;;;;;;;5.9;3.4;;;;;;;3.11;96.0791;958.5583;;;;
2023/12/16 01:57:04;;;;;;;5.6;3;;;;;;;3.05;96.27832;958.5168;;;;
2023/12/16 01:59:32;;;;;;;4.2;2.8;;;;;;;3;96.30176;958.4295;;;;
2023/12/16 02:01:57;;;;;;;3;2.1;;;;;;;3.11;95.69727;958.3772;;;;
2023/12/16 02:04:34;;;;;;;4.6;2.3;;;;;;;3;96.17578;958.3265;;;;
2023/12/16 02:06:54;;;;;;;3.9;2.8;;;;;;;2.89;96.19824;958.4318;;;;
2023/12/16 02:09:21;;;;;;;2.6;2.1;;;;;;;2.9;96.17578;958.4353;;;;
2023/12/16 02:11:46;;;;;;;3.6;2.2;;;;;;;2.82;95.97852;958.3956;;;;
2023/12/16 02:14:13;;;;;;;4;2.6;;;;;;;2.71;96.56152;958.4364;;;;
2023/12/16 02:16:38;;;;;;;4.7;2.8;;;;;;;2.66;96.95215;958.4112;;;;
2023/12/16 02:19:07;;;;;;;5.6;3.4;;;;;;;2.66;96.8623;958.4711;;;;
2023/12/16 02:21:32;;;;;;;5.2;3.5;;;;;;;2.67;96.91895;958.497;;;;
2023/12/16 02:23:58;;;;;;;5.5;3.4;;;;;;;2.67;97.16504;958.5442;;;;
2023/12/16 02:26:24;;;;;;;5.5;3.6;;;;;;;2.64;97.22656;958.6113;;;;
2023/12/16 02:28:51;;;;;;;5.3;3.4;;;;;;;2.61;97.2334;958.61;;;;
2023/12/16 02:31:16;;;;;;;7;4.3;;;;;;;2.61;97.11035;958.6331;;;;
2023/12/16 02:33:45;;;;;;;5.5;3.5;;;;;;;2.57;96.90918;958.6619;;;;
2023/12/16 02:36:11;;;;;;;4.9;3;;;;;;;2.57;96.88672;958.5156;;;;
2023/12/16 02:38:38;;;;;;;4.5;2.8;;;;;;;2.64;96.16406;958.5991;;;;
2023/12/16 02:41:05;;;;;;;3.6;2.5;;;;;;;2.58;96.43164;958.6214;;;;
2023/12/16 02:43:33;;;;;;;4.2;2.6;;;;;;;2.49;96.47656;958.6859;;;;
2023/12/16 02:45:57;;;;;;;2.9;2.4;;;;;;;2.43;96.88965;958.6031;;;;
2023/12/16 02:48:28;;;;;;;3.1;2.4;;;;;;;2.4;96.9707;958.7108;;;;
2023/12/16 02:50:53;;;;;;;4;2.5;;;;;;;2.37;97.00098;958.6916;;;;
2023/12/16 02:53:18;;;;;;;10.1;5.1;;;;;;;2.26;97.22949;958.7328;;;;
2023/12/16 02:55:45;;;;;;;75.5;32.2;;;;;;;2.33;97.10254;958.7087;;;;
2023/12/16 02:58:10;;;;;;;40.7;19.6;;;;;;;2.31;97.1748;958.7251;;;;
2023/12/16 03:00:39;;;;;;;22.9;11.7;;;;;;;2.33;97.18066;958.8361;;;;
2023/12/16 03:03:05;;;;;;;19;9.7;;;;;;;2.35;97.0166;958.8574;;;;
2023/12/16 03:05:32;;;;;;;14.8;7.8;;;;;;;2.34;96.87988;958.8624;;;;
2023/12/16 03:07:57;;;;;;;7.6;4.4;;;;;;;2.36;96.90723;958.899;;;;
2023/12/16 03:10:22;;;;;;;3.6;2.8;;;;;;;2.37;96.75;958.86;;;;
2023/12/16 03:12:52;;;;;;;3.7;2.6;;;;;;;2.35;96.6582;958.8762;;;;
2023/12/16 03:15:24;;;;;;;3.4;2.4;;;;;;;2.33;96.50879;958.9901;;;;
2023/12/16 03:17:59;;;;;;;2.9;2.3;;;;;;;2.37;96.15625;958.9717;;;;
2023/12/16 03:20:29;;;;;;;3;2.3;;;;;;;2.28;96.16016;958.827;;;;
2023/12/16 03:22:57;;;;;;;3.7;2.5;;;;;;;2.26;96.36914;958.8746;;;;
2023/12/16 03:25:23;;;;;;;2.9;2.5;;;;;;;2.32;96.19336;958.8521;;;;
2023/12/16 03:27:55;;;;;;;3;2.2;;;;;;;2.26;95.93262;958.8463;;;;
2023/12/16 03:30:27;;;;;;;2.8;2.2;;;;;;;2.18;96.31641;958.9;;;;
2023/12/16 03:33:00;;;;;;;3.2;2.2;;;;;;;2.09;96.64551;958.8782;;;;
2023/12/16 03:35:30;;;;;;;2.7;2.1;;;;;;;2.1;96.52246;958.8789;;;;
2023/12/16 03:37:56;;;;;;;2.7;1.9;;;;;;;1.98;96.82031;958.8328;;;;
2023/12/16 03:40:20;;;;;;;5.2;2.9;;;;;;;1.97;97.23242;958.9579;;;;
2023/12/16 03:42:50;;;;;;;7.1;3.6;;;;;;;2.05;97.02734;958.8654;;;;
2023/12/16 03:45:20;;;;;;;8;3.8;;;;;;;2.01;97.06152;958.9067;;;;
2023/12/16 03:47:47;;;;;;;5.7;3.2;;;;;;;2.06;96.99316;958.8976;;;;
2023/12/16 03:50:18;;;;;;;5.1;2.9;;;;;;;2.1;96.90332;958.8949;;;;
2023/12/16 03:52:44;;;;;;;4.6;3;;;;;;;2.09;96.65234;958.869;;;;
2023/12/16 03:55:10;;;;;;;2.9;2.3;;;;;;;2.21;96.15723;958.9651;;;;
2023/12/16 03:57:41;;;;;;;2;1.7;;;;;;;2.06;96.38867;959.0223;;;;
2023/12/16 04:02:30;;;;;;;3.2;2.3;;;;;;;1.94;96.94434;958.9944;;;;
2023/12/16 04:04:59;;;;;;;2.8;2.1;;;;;;;1.97;96.78418;959.002;;;;
2023/12/16 04:07:24;;;;;;;3.1;2.3;;;;;;;1.95;96.68848;959.0555;;;;
2023/12/16 04:09:54;;;;;;;2.5;2.3;;;;;;;1.9;96.87988;959.1158;;;;
2023/12/16 04:12:18;;;;;;;2.4;2.2;;;;;;;1.89;96.95801;959.1403;;;;
2023/12/16 04:14:48;;;;;;;2.8;2.1;;;;;;;1.88;97.42383;959.1426;;;;
2023/12/16 04:17:12;;;;;;;3.2;2.3;;;;;;;1.85;98.01953;959.2675;;;;
2023/12/16 04:19:45;;;;;;;3.4;2.1;;;;;;;1.92;97.74609;959.2164;;;;
2023/12/16 04:22:10;;;;;;;3.7;2.3;;;;;;;1.93;97.66992;959.1707;;;;
2023/12/16 04:24:40;;;;;;;3.3;2.1;;;;;;;1.96;97.16309;959.2194;;;;
2023/12/16 04:27:04;;;;;;;3.6;2.5;;;;;;;1.95;96.78906;959.1595;;;;
2023/12/16 04:29:31;;;;;;;3.8;2.4;;;;;;;1.98;96.57227;959.1284;;;;
2023/12/16 04:31:56;;;;;;;5;3.1;;;;;;;1.97;96.20215;959.1794;;;;
2023/12/16 04:34:21;;;;;;;4.8;3.3;;;;;;;1.98;96.24902;959.1566;;;;
2023/12/16 04:36:49;;;;;;;5.4;3.2;;;;;;;2.1;95.33594;959.1169;;;;
2023/12/16 04:39:15;;;;;;;4.2;2.4;;;;;;;1.96;95.66113;959.0556;;;;
2023/12/16 04:41:39;;;;;;;3.8;2.5;;;;;;;1.84;96.07324;959.0538;;;;
2023/12/16 04:44:10;;;;;;;3.2;2.1;;;;;;;1.75;96.64551;958.9934;;;;
2023/12/16 04:46:41;;;;;;;3;2.2;;;;;;;1.83;96.58398;958.851;;;;
2023/12/16 04:49:06;;;;;;;4.1;2.5;;;;;;;1.82;96.46973;958.9558;;;;
2023/12/16 04:51:31;;;;;;;3.5;2.3;;;;;;;1.77;96.69434;959.038;;;;
2023/12/16 04:54:02;;;;;;;2;1.8;;;;;;;1.81;96.2793;959.1194;;;;
2023/12/16 04:56:27;;;;;;;2.5;1.9;;;;;;;1.76;96.56934;959.1865;;;;
2023/12/16 04:58:54;;;;;;;2.2;2;;;;;;;1.75;96.49805;959.2108;;;;
2023/12/16 05:01:19;;;;;;;2.1;1.8;;;;;;;1.74;96.6416;959.1406;;;;
2023/12/16 05:03:52;;;;;;;2.1;1.8;;;;;;;1.75;96.46484;959.1809;;;;
2023/12/16 05:06:17;;;;;;;2;1.7;;;;;;;1.61;96.74902;959.1768;;;;
2023/12/16 05:08:42;;;;;;;8.5;5;;;;;;;1.59;96.67578;959.1384;;;;
2023/12/16 05:11:09;;;;;;;3.8;3.1;;;;;;;1.57;96.80371;959.184;;;;
2023/12/16 05:13:34;;;;;;;4.2;2.8;;;;;;;1.62;97.12891;959.218;;;;
2023/12/16 05:16:03;;;;;;;3.9;3.1;;;;;;;1.66;97.48438;959.1689;;;;
2023/12/16 05:18:31;;;;;;;4.2;3;;;;;;;1.63;97.52051;959.1111;;;;
2023/12/16 05:20:56;;;;;;;5.1;3.1;;;;;;;1.61;97.44043;959.2952;;;;
2023/12/16 05:23:27;;;;;;;3.5;2.7;;;;;;;1.66;97.50684;959.2391;;;;
2023/12/16 05:25:54;;;;;;;4.1;3.1;;;;;;;1.62;97.7666;959.3661;;;;
2023/12/16 05:28:23;;;;;;;4.7;3.3;;;;;;;1.7;97.51465;959.348;;;;
2023/12/16 05:30:48;;;;;;;6.9;4.2;;;;;;;1.64;97.21191;959.351;;;;
2023/12/16 05:33:15;;;;;;;7.2;5.3;;;;;;;1.63;97.07324;959.3828;;;;
2023/12/16 05:35:40;;;;;;;9.2;5.6;;;;;;;1.61;97.10449;959.2544;;;;
2023/12/16 05:38:08;;;;;;;11.5;6.6;;;;;;;1.67;96.77051;959.3428;;;;
2023/12/16 05:40:33;;;;;;;19;8.1;;;;;;;1.64;96.54004;959.2576;;;;
2023/12/16 05:43:00;;;;;;;33.7;12.5;;;;;;;1.61;96.60156;959.2628;;;;
2023/12/16 05:45:25;;;;;;;30.9;13.1;;;;;;;1.63;96.05566;959.3456;;;;
2023/12/16 05:47:53;;;;;;;24.2;11.1;;;;;;;1.62;95.91016;959.25;;;;
2023/12/16 05:50:22;;;;;;;14.6;7;;;;;;;1.64;95.98145;959.3766;;;;
2023/12/16 05:52:47;;;;;;;9.3;5.1;;;;;;;1.71;95.63965;959.4151;;;;
2023/12/16 05:55:18;;;;;;;8.1;4.8;;;;;;;1.74;95.06445;959.5028;;;;
2023/12/16 05:57:49;;;;;;;5.4;3.5;;;;;;;1.73;95.27246;959.4712;;;;
2023/12/16 06:00:18;;;;;;;4.8;3;;;;;;;1.64;95.47852;959.4824;;;;
2023/12/16 06:02:42;;;;;;;4.5;2.6;;;;;;;1.73;94.92773;959.4836;;;;
2023/12/16 06:05:14;;;;;;;2.9;2.1;;;;;;;1.68;95.11719;959.5651;;;;
2023/12/16 06:07:44;;;;;;;2.4;2;;;;;;;1.7;94.88672;959.5961;;;;
2023/12/16 06:10:18;;;;;;;3.2;2.2;;;;;;;1.58;95.54395;959.5422;;;;
2023/12/16 06:12:45;;;;;;;2.7;1.8;;;;;;;1.49;95.63574;959.6219;;;;
2023/12/16 06:15:10;;;;;;;2.5;2;;;;;;;1.45;95.75977;959.5283;;;;
2023/12/16 06:17:35;;;;;;;2.8;2.2;;;;;;;1.42;95.81836;959.5547;;;;
2023/12/16 06:20:04;;;;;;;5.2;3.2;;;;;;;1.45;95.62305;959.6267;;;;
2023/12/16 06:22:28;;;;;;;23.5;11.5;;;;;;;1.36;95.51563;959.75;;;;
2023/12/16 06:24:54;;;;;;;10.1;5.4;;;;;;;1.35;95.7373;959.7341;;;;
2023/12/16 06:27:19;;;;;;;9;4.5;;;;;;;1.33;96.06836;959.6833;;;;
2023/12/16 06:29:44;;;;;;;5.3;3.6;;;;;;;1.38;95.83301;959.7265;;;;
2023/12/16 06:32:10;;;;;;;2.8;2.3;;;;;;;1.46;95.61816;959.7372;;;;
2023/12/16 06:34:40;;;;;;;3.5;2.4;;;;;;;1.49;95.36719;959.6299;;;;
2023/12/16 06:37:05;;;;;;;4.5;3.4;;;;;;;1.5;95.18848;959.6426;;;;
2023/12/16 06:39:32;;;;;;;9.5;5.5;;;;;;;1.46;95.29199;959.5742;;;;
2023/12/16 06:41:57;;;;;;;9.5;6.4;;;;;;;1.45;94.84277;959.3577;;;;
2023/12/16 06:44:28;;;;;;;6.5;4.4;;;;;;;1.44;94.65137;959.3824;;;;
2023/12/16 06:46:53;;;;;;;6.1;4;;;;;;;1.41;94.79004;959.3691;;;;
2023/12/16 06:49:19;;;;;;;4.4;3.6;;;;;;;1.32;95.04883;959.4025;;;;
2023/12/16 06:51:44;;;;;;;6.8;4.4;;;;;;;1.33;95.1875;959.3744;;;;
2023/12/16 06:54:16;;;;;;;7.5;3.7;;;;;;;1.34;94.65137;959.2916;;;;
2023/12/16 06:56:44;;;;;;;5.4;3.5;;;;;;;1.31;94.5;959.3237;;;;
2023/12/16 06:59:09;;;;;;;4.6;3.4;;;;;;;1.43;94.92871;959.4236;;;;
2023/12/16 07:01:38;;;;;;;4.4;3.6;;;;;;;1.5;94.74121;959.3773;;;;
2023/12/16 07:04:04;;;;;;;5.1;3.4;;;;;;;1.65;93.7373;959.37;;;;
2023/12/16 07:06:29;;;;;;;3;2.6;;;;;;;1.62;93.5957;959.4023;;;;
2023/12/16 07:08:57;;;;;;;3.9;2.6;;;;;;;1.62;93.1709;959.3603;;;;
2023/12/16 07:11:22;;;;;;;4.1;2.7;;;;;;;1.53;93.61133;959.3675;;;;
2023/12/16 07:13:50;;;;;;;3.5;2.4;;;;;;;1.52;93.72754;959.3904;;;;
2023/12/16 07:16:16;;;;;;;6.3;4.2;;;;;;;1.57;93.35938;959.4896;;;;
2023/12/16 07:18:48;;;;;;;38;21.3;;;;;;;1.71;92.76563;959.4474;;;;
2023/12/16 07:21:16;;;;;;;70.1;40.2;;;;;;;1.75;92.12598;959.4773;;;;
2023/12/16 07:23:42;;;;;;;68.6;42.2;;;;;;;1.66;92.31934;959.4838;;;;
2023/12/16 07:26:08;;;;;;;28;21.6;;;;;;;1.59;92.77344;959.4849;;;;
2023/12/16 07:28:33;;;;;;;35;29.4;;;;;;;1.59;92.86035;959.5064;;;;
2023/12/16 07:31:03;;;;;;;18.1;15.8;;;;;;;1.68;92.40137;959.5001;;;;
2023/12/16 07:33:28;;;;;;;8.1;7.2;;;;;;;1.55;92.95313;959.5314;;;;
2023/12/16 07:35:57;;;;;;;4.3;3.3;;;;;;;1.42;93.23828;959.6242;;;;
2023/12/16 07:38:28;;;;;;;2.7;2.1;;;;;;;1.48;92.79199;959.6426;;;;
2023/12/16 07:40:58;;;;;;;5.5;2.9;;;;;;;1.43;92.92969;959.7082;;;;
2023/12/16 07:43:23;;;;;;;7;3.7;;;;;;;1.39;93.1748;959.6127;;;;
2023/12/16 07:45:51;;;;;;;9.2;5.8;;;;;;;1.45;93.17578;959.6079;;;;
2023/12/16 07:48:16;;;;;;;9.2;5.7;;;;;;;1.38;93.32031;959.7274;;;;
2023/12/16 07:50:48;;;;;;;9.6;7;;;;;;;1.5;93.36816;959.6603;;;;
2023/12/16 07:53:13;;;;;;;10.7;7.3;;;;;;;1.48;93.36426;959.6054;;;;
2023/12/16 07:55:46;;;;;;;10.1;6.7;;;;;;;1.48;93.55273;959.626;;;;
2023/12/16 07:58:18;;;;;;;12;6.9;;;;;;;1.61;93.06836;959.5967;;;;
2023/12/16 08:00:50;;;;;;;7.2;5.4;;;;;;;1.65;92.58594;959.5443;;;;
2023/12/16 08:03:22;;;;;;;6.4;5.2;;;;;;;1.49;93.01953;959.5257;;;;
2023/12/16 08:05:47;;;;;;;7.1;5.6;;;;;;;1.55;93.19922;959.5486;;;;
2023/12/16 08:08:18;;;;;;;8.5;6.2;;;;;;;1.77;94.02051;959.5197;;;;
2023/12/16 08:10:43;;;;;;;9.9;6.2;;;;;;;2.33;94.32422;959.5759;;;;
2023/12/16 08:13:10;;;;;;;9.4;6.8;;;;;;;3.23;91.3916;959.5807;;;;
2023/12/16 08:15:35;;;;;;;13.9;9.4;;;;;;;4.06;88.36426;959.5229;;;;
2023/12/16 08:18:09;;;;;;;7.7;5.7;;;;;;;4.72;84.40332;959.582;;;;
2023/12/16 08:20:32;;;;;;;13.4;9.5;;;;;;;5.32;82.16211;959.6481;;;;
2023/12/16 08:23:02;;;;;;;7.8;5.3;;;;;;;5.8;78.92285;959.6384;;;;
2023/12/16 08:25:25;;;;;;;5.8;4.2;;;;;;;6.13;76.85938;959.789;;;;
2023/12/16 08:27:55;;;;;;;6.2;3.5;;;;;;;6.46;74.91797;959.8519;;;;
2023/12/16 08:30:21;;;;;;;3.8;3.2;;;;;;;6.83;74.21289;959.8699;;;;
2023/12/16 08:32:45;;;;;;;4;3.2;;;;;;;6.82;72.01367;959.8883;;;;
2023/12/16 08:35:15;;;;;;;5.4;3.7;;;;;;;6.97;72.1748;959.8978;;;;
2023/12/16 08:37:46;;;;;;;4.2;3.1;;;;;;;7.25;70.5;959.9011;;;;
2023/12/16 08:40:17;;;;;;;5.2;3.2;;;;;;;7.38;68.85449;959.9114;;;;
2023/12/16 08:42:43;;;;;;;4.9;3.1;;;;;;;7.71;68.46582;959.8926;;;;
2023/12/16 08:45:11;;;;;;;4.1;2.7;;;;;;;7.82;67.04395;959.8784;;;;
2023/12/16 08:47:36;;;;;;;4;2.9;;;;;;;7.83;67.52148;959.8091;;;;
2023/12/16 08:50:03;;;;;;;3.4;2.2;;;;;;;8;64.84668;959.7159;;;;
2023/12/16 08:52:27;;;;;;;3.8;2.1;;;;;;;8.16;64.5752;959.7594;;;;
2023/12/16 08:54:52;;;;;;;4.1;1.8;;;;;;;8.36;62.69629;959.7999;;;;
2023/12/16 08:57:23;;;;;;;3.5;2.2;;;;;;;8.37;62.78809;959.8433;;;;
2023/12/16 08:59:55;;;;;;;2.7;2.4;;;;;;;8.77;62.81348;959.8878;;;;
2023/12/16 09:02:21;;;;;;;4.3;3;;;;;;;8.89;60.86328;959.8622;;;;
2023/12/16 09:04:50;;;;;;;4.3;3.4;;;;;;;9.14;61.23926;959.8242;;;;
2023/12/16 09:07:16;;;;;;;3.8;2.9;;;;;;;9.15;59.36328;959.8167;;;;
2023/12/16 09:09:41;;;;;;;4.3;3.1;;;;;;;9.31;60.93457;959.9626;;;;
2023/12/16 09:12:07;;;;;;;5.7;3;;;;;;;9.27;59.74414;959.8844;;;;
2023/12/16 09:14:35;;;;;;;3.7;2.8;;;;;;;9.18;58.72949;959.7612;;;;
2023/12/16 09:17:00;;;;;;;3.2;2.1;;;;;;;9.2;59.12109;959.677;;;;
2023/12/16 09:19:27;;;;;;;2.1;1.9;;;;;;;9.21;58.4375;959.7131;;;;
2023/12/16 09:21:56;;;;;;;2.7;1.7;;;;;;;9.3;59.00781;959.8045;;;;
2023/12/16 09:24:21;;;;;;;2.6;1.9;;;;;;;9.35;57.80664;959.6692;;;;
2023/12/16 09:26:46;;;;;;;4.5;2.1;;;;;;;9.3;59.77148;959.6498;;;;
2023/12/16 09:29:15;;;;;;;3.3;2.1;;;;;;;9.59;58.94629;959.6835;;;;
2023/12/16 09:31:40;;;;;;;3.3;2;;;;;;;9.73;57.95117;959.9422;;;;
2023/12/16 09:34:10;;;;;;;2.4;2;;;;;;;10.05;57.39941;960.0761;;;;
2023/12/16 09:36:35;;;;;;;3.1;1.6;;;;;;;10.55;57.27148;960.1968;;;;
2023/12/16 09:39:03;;;;;;;2.2;1.7;;;;;;;10.51;53.77344;960.0773;;;;
2023/12/16 09:41:29;;;;;;;2.3;1.7;;;;;;;10.12;52.96094;959.9105;;;;
2023/12/16 09:43:54;;;;;;;3.3;1.5;;;;;;;9.82;57.05078;959.9193;;;;
2023/12/16 09:46:19;;;;;;;9.4;5.3;;;;;;;9.61;57.67285;960.0962;;;;
2023/12/16 09:48:45;;;;;;;11.8;6.5;;;;;;;9.21;57.25488;960.0793;;;;
2023/12/16 09:51:10;;;;;;;4.4;2.3;;;;;;;9.01;57.20508;960.0556;;;;
2023/12/16 09:53:35;;;;;;;2.6;2;;;;;;;8.67;58.49023;960.1002;;;;
2023/12/16 09:56:06;;;;;;;2.3;2.1;;;;;;;8.73;60.30566;960.0906;;;;
2023/12/16 09:58:31;;;;;;;2.6;1.8;;;;;;;8.86;59.85742;959.9816;;;;
2023/12/16 10:01:02;;;;;;;2.4;1.5;;;;;;;9.07;58.78516;960.0332;;;;
2023/12/16 10:03:32;;;;;;;1.5;1.3;;;;;;;8.99;57.81641;960.1573;;;;
2023/12/16 10:05:59;;;;;;;1.4;1.3;;;;;;;8.89;58.40527;960.1617;;;;
2023/12/16 10:08:24;;;;;;;1.9;1.5;;;;;;;8.93;58.54785;960.1526;;;;
2023/12/16 10:10:52;;;;;;;2.3;1.4;;;;;;;8.62;59.32422;960.1888;;;;
2023/12/16 10:13:17;;;;;;;4.3;2.1;;;;;;;8.3;59.24512;960.1853;;;;
2023/12/16 10:15:47;;;;;;;3.3;1.7;;;;;;;8.16;60.78418;960.2081;;;;
2023/12/16 10:18:15;;;;;;;2.9;1.8;;;;;;;8.22;60.91504;960.1289;;;;
2023/12/16 10:20:41;;;;;;;2.9;2;;;;;;;8.18;60.99023;960.2781;;;;
2023/12/16 10:23:10;;;;;;;2.4;2.2;;;;;;;8.1;60.69434;960.1951;;;;
2023/12/16 10:25:38;;;;;;;6;2.2;;;;;;;7.9;61.41504;960.2983;;;;
2023/12/16 10:28:03;;;;;;;3.4;1.7;;;;;;;7.85;60.08105;960.1028;;;;
2023/12/16 10:30:39;;;;;;;6.4;1.7;;;;;;;7.6;60.75977;960.059;;;;
2023/12/16 10:33:04;;;;;;;2.2;1.5;;;;;;;7.32;62.03516;959.978;;;;
2023/12/16 10:35:31;;;;;;;1.6;1.1;;;;;;;7.02;64.08691;960.0097;;;;
2023/12/16 10:37:56;;;;;;;1.9;1.3;;;;;;;7.15;64.33203;960.1083;;;;
2023/12/16 10:40:31;;;;;;;1.2;1.1;;;;;;;7.3;62.16797;960.0539;;;;
2023/12/16 10:42:59;;;;;;;1.3;1.2;;;;;;;7.37;62.9707;959.9885;;;;
2023/12/16 10:45:25;;;;;;;1.8;1.5;;;;;;;7.23;64.20898;959.9601;;;;
2023/12/16 10:47:50;;;;;;;2.9;1.6;;;;;;;7.19;62.35645;959.9711;;;;
2023/12/16 10:50:15;;;;;;;2.8;1.8;;;;;;;7.02;63.0791;959.9881;;;;
2023/12/16 10:52:41;;;;;;;1.6;1.4;;;;;;;6.92;65.65625;959.9465;;;;
2023/12/16 10:55:05;;;;;;;2.8;2;;;;;;;6.93;64.81055;959.9506;;;;
2023/12/16 10:57:34;;;;;;;2.2;1.6;;;;;;;6.98;64.69141;959.919;;;;
2023/12/16 11:00:00;;;;;;;3.2;1.6;;;;;;;6.61;63.93457;959.8049;;;;
2023/12/16 11:02:28;;;;;;;2.6;2.2;;;;;;;6.42;66.30371;959.8323;;;;
2023/12/16 11:04:51;;;;;;;3.6;2.4;;;;;;;6.31;68.62695;959.8646;;;;
2023/12/16 11:07:17;;;;;;;4.3;2.8;;;;;;;6.12;69.18457;959.7314;;;;
2023/12/16 11:09:43;;;;;;;5.1;2.4;;;;;;;6.02;70.56934;959.7167;;;;
2023/12/16 11:12:08;;;;;;;2.9;2.1;;;;;;;5.89;69.46582;959.6707;;;;
2023/12/16 11:14:33;;;;;;;3.2;2.1;;;;;;;5.93;71.71973;959.6624;;;;
2023/12/16 11:17:02;;;;;;;4.1;2.5;;;;;;;5.97;70.52832;959.6336;;;;
2023/12/16 11:19:27;;;;;;;5.7;3;;;;;;;5.98;71.48828;959.5963;;;;
2023/12/16 11:21:52;;;;;;;3.1;2.1;;;;;;;6;71.67383;959.5858;;;;
2023/12/16 11:24:17;;;;;;;4.9;2.4;;;;;;;5.99;72;959.6253;;;;
2023/12/16 11:26:43;;;;;;;4.1;2.3;;;;;;;5.9;71.0127;959.6067;;;;
2023/12/16 11:29:08;;;;;;;3;2.3;;;;;;;5.89;71.90234;959.5776;;;;
2023/12/16 11:31:37;;;;;;;3.7;1.9;;;;;;;5.81;71.4502;959.4543;;;;
2023/12/16 11:34:03;;;;;;;4.4;2.4;;;;;;;5.77;71.52246;959.4804;;;;
2023/12/16 11:36:33;;;;;;;3.2;2;;;;;;;5.69;71.66699;959.4753;;;;
2023/12/16 11:38:59;;;;;;;6;2.4;;;;;;;5.77;72.61719;959.4288;;;;
2023/12/16 11:41:24;;;;;;;5.2;2.5;;;;;;;5.81;73.29102;959.4235;;;;
2023/12/16 11:43:50;;;;;;;3.3;2.3;;;;;;;5.77;73.76855;959.2419;;;;
2023/12/16 11:46:15;;;;;;;2.2;1.9;;;;;;;5.7;73.65625;959.204;;;;
2023/12/16 11:48:40;;;;;;;4.7;2.2;;;;;;;5.72;74.78809;959.2572;;;;
2023/12/16 11:51:07;;;;;;;3.4;2.3;;;;;;;5.73;73.05273;959.3071;;;;
2023/12/16 11:53:33;;;;;;;5.1;2.7;;;;;;;5.72;73.81738;959.2729;;;;
2023/12/16 11:56:02;;;;;;;5.1;2.7;;;;;;;5.75;74.89648;959.223;;;;
2023/12/16 11:58:27;;;;;;;2.2;1.7;;;;;;;5.66;74.35938;959.2914;;;;
2023/12/16 12:00:57;;;;;;;2.5;1.9;;;;;;;5.64;73.56641;959.3022;;;;
2023/12/16 12:03:27;;;;;;;3.8;2.1;;;;;;;5.55;72.34277;959.3139;;;;
2023/12/16 12:05:52;;;;;;;3.1;2;;;;;;;5.48;72.29883;959.2392;;;;
2023/12/16 12:08:18;;;;;;;2.7;1.5;;;;;;;5.39;73.66895;959.1625;;;;
2023/12/16 12:10:43;;;;;;;3.6;1.5;;;;;;;5.31;74.41113;959.0809;;;;
2023/12/16 12:13:11;;;;;;;3.4;1.7;;;;;;;5.29;74.03516;958.8973;;;;
2023/12/16 12:15:36;;;;;;;4.8;2.3;;;;;;;5.32;72.24707;958.8345;;;;
2023/12/16 12:18:05;;;;;;;4.3;2.6;;;;;;;5.3;72.74121;958.8057;;;;
2023/12/16 12:20:31;;;;;;;5.8;3.3;;;;;;;5.38;72.87793;958.8237;;;;
2023/12/16 12:22:58;;;;;;;9.8;5.1;;;;;;;5.48;74.71289;958.7231;;;;
2023/12/16 12:25:24;;;;;;;7.3;4.6;;;;;;;5.39;74.98926;958.5854;;;;
2023/12/16 12:27:51;;;;;;;5.2;3;;;;;;;5.39;73.20703;958.4846;;;;
2023/12/16 12:30:21;;;;;;;7;4.2;;;;;;;5.37;73.74512;958.3172;;;;
2023/12/16 12:32:52;;;;;;;8.8;4.5;;;;;;;5.4;73.7832;958.3914;;;;
2023/12/16 12:35:17;;;;;;;4.9;2.8;;;;;;;5.46;72.87109;958.3901;;;;
2023/12/16 12:37:44;;;;;;;3;2.2;;;;;;;5.5;72.0293;958.288;;;;
2023/12/16 12:40:13;;;;;;;3.2;2.3;;;;;;;5.61;72.19727;958.1721;;;;
2023/12/16 12:42:44;;;;;;;2.9;1.9;;;;;;;5.63;71.25;958.1122;;;;
2023/12/16 12:45:09;;;;;;;3.6;2;;;;;;;5.72;70.54297;958.1041;;;;
2023/12/16 12:47:35;;;;;;;3.2;1.8;;;;;;;5.72;70.50879;958.0532;;;;
2023/12/16 12:50:00;;;;;;;2.7;2;;;;;;;5.75;71.19141;958.0513;;;;
2023/12/16 12:52:25;;;;;;;4.7;2;;;;;;;5.74;72.03809;958.1174;;;;
2023/12/16 12:54:51;;;;;;;2;1.8;;;;;;;5.71;73.24023;958.1256;;;;
2023/12/16 12:57:16;;;;;;;3.1;2;;;;;;;5.73;72.56543;958.0374;;;;
2023/12/16 12:59:43;;;;;;;2.4;1.7;;;;;;;5.72;73.03809;958.2335;;;;
2023/12/16 13:02:09;;;;;;;2.3;1.5;;;;;;;5.79;73.1748;958.3524;;;;
2023/12/16 13:04:34;;;;;;;1.6;1.2;;;;;;;5.78;70.08887;958.4119;;;;
2023/12/16 13:07:04;;;;;;;1.1;1;;;;;;;5.76;69.71289;958.5198;;;;
2023/12/16 13:09:30;;;;;;;1.8;1.3;;;;;;;5.76;70.60547;958.4872;;;;
2023/12/16 13:11:56;;;;;;;2.4;1.5;;;;;;;5.79;70.78027;958.4052;;;;
2023/12/16 13:14:21;;;;;;;3;1.5;;;;;;;5.77;72.65039;958.3939;;;;
2023/12/16 13:16:46;;;;;;;2.1;1.4;;;;;;;5.63;74.17383;958.4378;;;;
2023/12/16 13:19:14;;;;;;;3.4;2;;;;;;;5.63;74.30957;958.5165;;;;
2023/12/16 13:21:40;;;;;;;4.8;2.6;;;;;;;5.54;75.16309;958.4996;;;;
2023/12/16 13:24:06;;;;;;;5.1;2.9;;;;;;;5.42;76.90234;958.4359;;;;
2023/12/16 13:26:32;;;;;;;5.7;2.8;;;;;;;5.37;77.70313;958.3491;;;;
2023/12/16 13:28:59;;;;;;;7.9;2.9;;;;;;;5.37;77.23145;958.4189;;;;
2023/12/16 13:31:25;;;;;;;10.9;5.3;;;;;;;5.39;77.04199;958.4841;;;;
2023/12/16 13:33:53;;;;;;;20.4;11;;;;;;;5.37;78.55078;958.4291;;;;
2023/12/16 13:36:19;;;;;;;28.5;14.5;;;;;;;5.35;78.93066;958.4012;;;;
2023/12/16 13:38:47;;;;;;;25.5;13;;;;;;;5.29;79.21289;958.4044;;;;
2023/12/16 13:41:15;;;;;;;21.1;10.7;;;;;;;5.25;79.66797;958.346;;;;
2023/12/16 13:43:40;;;;;;;11.3;5.5;;;;;;;5.21;79.0957;958.3325;;;;
2023/12/16 13:46:06;;;;;;;6.4;3.4;;;;;;;5.16;78.61426;958.301;;;;
2023/12/16 13:48:33;;;;;;;5.5;3.2;;;;;;;5.18;78.20215;958.2342;;;;
2023/12/16 13:50:59;;;;;;;4.6;2.5;;;;;;;5.14;79.41113;958.2349;;;;
2023/12/16 13:53:25;;;;;;;4.9;3.1;;;;;;;5.1;79.06641;958.2639;;;;
2023/12/16 13:55:50;;;;;;;6.4;2.9;;;;;;;5.12;79.0459;958.3248;;;;
2023/12/16 13:58:18;;;;;;;5.8;3.1;;;;;;;5.08;79.29785;958.3091;;;;
2023/12/16 14:00:42;;;;;;;4;2.7;;;;;;;5.02;79.8291;958.3789;;;;
2023/12/16 14:03:14;;;;;;;3.9;2.4;;;;;;;4.92;80.45313;958.3589;;;;
2023/12/16 14:05:44;;;;;;;3.1;2.6;;;;;;;4.84;80.66309;958.3491;;;;
2023/12/16 14:08:12;;;;;;;4.1;2.6;;;;;;;4.76;80.69238;958.2546;;;;
2023/12/16 14:10:37;;;;;;;3.4;2.2;;;;;;;4.73;80.42871;958.3247;;;;
2023/12/16 14:13:05;;;;;;;2.6;1.8;;;;;;;4.61;80.12305;958.3373;;;;
2023/12/16 14:15:30;;;;;;;2.4;1.6;;;;;;;4.64;79.75781;958.4473;;;;
2023/12/16 14:17:55;;;;;;;2.9;1.7;;;;;;;4.54;80.22168;958.5389;;;;
2023/12/16 14:20:24;;;;;;;2.3;1.9;;;;;;;4.44;80.7002;958.5904;;;;
2023/12/16 14:22:50;;;;;;;2.3;1.5;;;;;;;4.36;80.67383;958.6305;;;;
2023/12/16 14:25:20;;;;;;;1.9;1.5;;;;;;;4.3;80.61719;958.5823;;;;
2023/12/16 14:27:47;;;;;;;6;3.1;;;;;;;4.28;80.0957;958.6425;;;;
2023/12/16 14:30:14;;;;;;;15.9;8.1;;;;;;;4.33;80.92578;958.6711;;;;
2023/12/16 14:32:43;;;;;;;18.4;8.3;;;;;;;4.29;81.3125;958.6779;;;;
2023/12/16 14:35:10;;;;;;;24.5;11;;;;;;;4.22;81.47754;958.6597;;;;
2023/12/16 14:37:34;;;;;;;16.1;9.5;;;;;;;4.2;82.12793;958.57;;;;
2023/12/16 14:39:59;;;;;;;17.1;10.1;;;;;;;4.11;82.94336;958.5614;;;;